MMMY/MTY METAR and TAF weather

Enter ICAO airport designator
Station Type Date Time Source
MMMY METAR 2022/12/10 01:40 UTC NOAA

MMMY 100140Z 00000KT 5SM FEW020 22/17 A2999 RMK 8/500 HZY


Station Type Date Time Source
MMMY Decoded METAR 2022/12/10 01:40 UTC NOAA

Monterrey / Gen Maria, Mexico (MMMY) 25-47N 100-06W
Dec 09, 2022 - 08:40 PM EST / 2022.12.10 0140 UTC
Wind: Calm:0
Visibility: 5 mile(s):0
Sky conditions: mostly clear
Temperature: 71 F (22 C)
Dew Point: 62 F (17 C)
Relative Humidity: 73%
Pressure (altimeter): 29.99 in. Hg (1015 hPa)
ob: MMMY 100140Z 00000KT 5SM FEW020 22/17 A2999 RMK 8/500 HZY
cycle: 1

Station Type Date Time Source
MMMY TAF 2022/12/09 18:54 UTC NOAA

TAF COR MMMY 091947Z 0918/1024 06005KT 3SM HZ BKN008 OVC013 TX25/0921Z TN18/1012Z
FM092000 13010KT 4SM HZ SCT008
TEMPO 0923/1003 3SM BR HZ OVC010
FM100300 09005KT 3SM BR HZ BKN005 OVC010
TEMPO 1010/1014 1/2SM FG VV005
FM101400 09005KT 3SM BR HZ BKN015 OVC040
FM101700 13005KT P6SM SCT020 BKN040

Example: see airport list